createdAt,value
2024-05-09T00:00:30.429Z,83.60
2024-05-09T00:03:02.621Z,83.60
2024-05-09T00:05:29.429Z,83.50
2024-05-09T00:07:56.207Z,83.60
2024-05-09T00:10:29.251Z,83.70
2024-05-09T00:13:07.159Z,83.50
2024-05-09T00:15:34.738Z,83.50
2024-05-09T00:18:02.259Z,83.40
2024-05-09T00:20:37.325Z,83.40
2024-05-09T00:23:07.610Z,83.50
2024-05-09T00:25:34.643Z,83.50
2024-05-09T00:28:01.439Z,83.50
2024-05-09T00:30:33.959Z,83.50
2024-05-09T00:33:03.641Z,83.30
2024-05-09T00:35:30.952Z,83.40
2024-05-09T00:37:57.822Z,83.40
2024-05-09T00:40:34.743Z,83.40
2024-05-09T00:43:05.519Z,83.40
2024-05-09T00:45:32.216Z,83.40
2024-05-09T00:47:59.172Z,83.40
2024-05-09T00:50:34.010Z,83.30
2024-05-09T00:53:03.496Z,83.40
2024-05-09T00:55:30.211Z,83.40
2024-05-09T00:57:57.019Z,83.30
2024-05-09T01:00:31.478Z,83.30
2024-05-09T01:03:05.056Z,83.30
2024-05-09T01:05:32.064Z,83.20
2024-05-09T01:07:58.839Z,83.30
2024-05-09T01:10:33.433Z,83.30
2024-05-09T01:13:01.900Z,83.20
2024-05-09T01:15:28.593Z,83.20
2024-05-09T01:17:55.546Z,83.20
2024-05-09T01:20:31.838Z,83.10
2024-05-09T01:23:06.883Z,83.10
2024-05-09T01:25:33.619Z,83.00
2024-05-09T01:28:00.284Z,83.10
2024-05-09T01:30:33.835Z,83.00
2024-05-09T01:33:03.192Z,83.10
2024-05-09T01:35:30.276Z,83.10
2024-05-09T01:37:57.053Z,83.10
2024-05-09T01:40:33.332Z,83.00
2024-05-09T01:43:04.368Z,83.00
2024-05-09T01:45:31.059Z,83.10
2024-05-09T01:47:58.010Z,83.00
2024-05-09T01:50:36.203Z,83.00
2024-05-09T01:53:06.703Z,83.00
2024-05-09T01:55:33.430Z,83.00
2024-05-09T01:58:00.078Z,83.00
2024-05-09T02:00:34.503Z,83.00
2024-05-09T02:03:06.596Z,83.00
2024-05-09T02:05:33.492Z,83.00
2024-05-09T02:08:00.298Z,83.00
2024-05-09T02:10:32.328Z,82.90
2024-05-09T02:13:01.048Z,82.80
2024-05-09T02:15:27.866Z,82.80
2024-05-09T02:17:54.755Z,82.80
2024-05-09T02:22:51.190Z,82.90
2024-05-09T02:25:17.892Z,82.80
2024-05-09T02:27:44.540Z,82.70
2024-05-09T02:30:18.770Z,82.70
2024-05-09T02:32:53.012Z,82.70
2024-05-09T02:35:19.786Z,82.80
2024-05-09T02:37:46.508Z,82.70
2024-05-09T02:40:15.004Z,82.60
2024-05-09T02:42:48.044Z,82.70
2024-05-09T02:45:14.706Z,83.40
2024-05-09T02:47:41.554Z,82.60
2024-05-09T02:50:08.465Z,82.70
2024-05-09T02:52:36.818Z,82.50
2024-05-09T02:55:03.459Z,82.60
2024-05-09T02:57:30.135Z,82.60
2024-05-09T02:59:56.787Z,82.60
2024-05-09T03:02:23.547Z,82.50
2024-05-09T03:04:50.359Z,82.50
2024-05-09T03:07:19.732Z,82.50
2024-05-09T03:09:46.785Z,82.50
2024-05-09T03:12:13.572Z,82.50
2024-05-09T03:14:40.338Z,82.40
2024-05-09T03:17:07.096Z,82.40
2024-05-09T03:19:33.832Z,82.40
2024-05-09T03:22:00.617Z,82.40
2024-05-09T03:24:27.259Z,82.40
2024-05-09T03:26:53.928Z,82.40
2024-05-09T03:29:20.611Z,82.40
2024-05-09T03:31:47.371Z,82.50
2024-05-09T03:34:14.068Z,83.10
2024-05-09T03:36:40.722Z,82.40
2024-05-09T03:39:07.378Z,82.30
2024-05-09T03:41:34.049Z,82.20
2024-05-09T03:44:00.847Z,82.20
2024-05-09T03:46:27.516Z,82.20
2024-05-09T03:48:54.240Z,82.30
2024-05-09T03:51:21.016Z,82.30
2024-05-09T03:53:47.736Z,82.20
2024-05-09T03:56:14.450Z,82.10
2024-05-09T03:58:41.119Z,82.00
2024-05-09T04:01:07.787Z,82.00
2024-05-09T04:03:34.656Z,82.00
2024-05-09T04:06:01.385Z,81.80
2024-05-09T04:08:28.112Z,82.00
2024-05-09T04:10:54.826Z,82.00
2024-05-09T04:13:21.532Z,81.90
2024-05-09T04:15:48.201Z,81.90
2024-05-09T04:18:14.929Z,82.00
2024-05-09T04:20:41.756Z,81.90
2024-05-09T04:23:09.378Z,82.00
2024-05-09T04:25:36.408Z,81.90
2024-05-09T04:28:06.908Z,81.80
2024-05-09T04:30:38.389Z,81.80
2024-05-09T04:33:09.206Z,81.80
2024-05-09T04:35:38.077Z,81.70
2024-05-09T04:38:05.097Z,81.60
2024-05-09T04:40:35.155Z,81.80
2024-05-09T04:43:03.541Z,81.30
2024-05-09T04:45:30.215Z,81.00
2024-05-09T04:48:01.720Z,81.10
2024-05-09T04:50:36.349Z,81.00
2024-05-09T04:53:05.971Z,81.00
2024-05-09T04:55:33.135Z,80.90
2024-05-09T04:57:59.923Z,80.60
2024-05-09T05:00:34.646Z,80.50
2024-05-09T05:03:03.839Z,80.50
2024-05-09T05:05:30.758Z,80.40
2024-05-09T05:07:57.476Z,80.50
2024-05-09T05:10:33.006Z,80.30
2024-05-09T05:13:02.290Z,80.30
2024-05-09T05:15:30.958Z,81.00
2024-05-09T05:17:57.797Z,80.20
2024-05-09T05:20:31.238Z,80.20
2024-05-09T05:23:00.544Z,80.30
2024-05-09T05:25:27.449Z,80.10
2024-05-09T05:27:54.125Z,80.00
2024-05-09T05:30:25.286Z,80.20
2024-05-09T05:32:56.129Z,80.10
2024-05-09T05:35:23.023Z,80.10
2024-05-09T05:37:49.769Z,80.10
2024-05-09T05:40:27.523Z,80.10
2024-05-09T05:42:59.651Z,80.00
2024-05-09T05:45:26.316Z,80.00
2024-05-09T05:47:53.280Z,79.90
2024-05-09T05:50:27.483Z,79.80
2024-05-09T05:52:59.771Z,80.00
2024-05-09T05:55:26.472Z,79.90
2024-05-09T05:57:53.164Z,80.00
2024-05-09T06:00:29.233Z,80.00
2024-05-09T06:03:02.188Z,80.00
2024-05-09T06:05:29.120Z,79.90
2024-05-09T06:07:55.981Z,79.80
2024-05-09T06:10:29.587Z,79.80
2024-05-09T06:13:01.640Z,79.80
2024-05-09T06:15:28.299Z,79.70
2024-05-09T06:17:55.234Z,79.80
2024-05-09T06:20:31.538Z,79.80
2024-05-09T06:23:02.557Z,79.70
2024-05-09T06:25:29.312Z,79.80
2024-05-09T06:27:55.963Z,79.80
2024-05-09T06:30:30.049Z,79.90
2024-05-09T06:33:04.030Z,79.90
2024-05-09T06:35:31.245Z,79.90
2024-05-09T06:37:58.216Z,80.00
2024-05-09T06:40:29.468Z,80.00
2024-05-09T06:43:02.134Z,80.00
2024-05-09T06:45:28.843Z,79.90
2024-05-09T06:47:55.629Z,80.10
2024-05-09T06:50:24.440Z,80.20
2024-05-09T06:52:54.742Z,80.20
2024-05-09T06:55:21.420Z,80.10
2024-05-09T06:57:48.125Z,80.00
2024-05-09T07:00:22.798Z,80.10
2024-05-09T07:02:57.657Z,80.20
2024-05-09T07:05:25.962Z,80.10
2024-05-09T07:07:52.803Z,80.10
2024-05-09T07:10:28.359Z,80.20
2024-05-09T07:12:59.333Z,80.30
2024-05-09T07:15:26.053Z,80.30
2024-05-09T07:17:52.877Z,80.50
2024-05-09T07:20:27.477Z,80.40
2024-05-09T07:23:00.686Z,80.50
2024-05-09T07:25:27.407Z,80.50
2024-05-09T07:27:54.083Z,80.50
2024-05-09T07:30:27.522Z,80.60
2024-05-09T07:32:59.983Z,80.60
2024-05-09T07:35:27.238Z,80.60
2024-05-09T07:37:54.208Z,80.70
2024-05-09T07:40:31.567Z,80.70
2024-05-09T07:43:02.182Z,80.80
2024-05-09T07:45:45.101Z,80.80
2024-05-09T07:49:45.373Z,80.80
2024-05-09T07:53:40.566Z,80.80
2024-05-09T07:56:12.048Z,80.90
2024-05-09T07:58:39.069Z,80.90
2024-05-09T08:01:06.064Z,80.90
2024-05-09T08:03:33.165Z,80.90
2024-05-09T08:06:00.089Z,81.00
2024-05-09T08:08:26.829Z,81.10
2024-05-09T08:10:53.669Z,81.10
2024-05-09T08:13:20.528Z,81.00
2024-05-09T08:15:49.145Z,81.10
2024-05-09T08:18:16.052Z,81.20
2024-05-09T08:20:42.801Z,81.10
2024-05-09T08:23:13.135Z,81.20
2024-05-09T08:25:40.075Z,81.20
2024-05-09T08:28:06.850Z,81.30
2024-05-09T08:30:37.145Z,81.30
2024-05-09T08:33:07.850Z,81.30
2024-05-09T08:35:34.968Z,81.30
2024-05-09T08:38:01.841Z,81.30
2024-05-09T08:40:34.414Z,81.30
2024-05-09T08:43:03.227Z,81.20
2024-05-09T08:45:30.243Z,81.30
2024-05-09T08:47:57.079Z,81.30
2024-05-09T08:50:31.841Z,81.40
2024-05-09T08:53:04.676Z,81.30
2024-05-09T08:55:31.322Z,81.30
2024-05-09T08:57:58.140Z,81.50
2024-05-09T09:00:33.826Z,81.40
2024-05-09T09:03:03.825Z,81.40
2024-05-09T09:05:30.755Z,81.30
2024-05-09T09:07:57.546Z,81.40
2024-05-09T09:10:29.916Z,81.40
2024-05-09T09:12:58.990Z,81.30
2024-05-09T09:15:25.691Z,81.40
2024-05-09T09:17:52.532Z,81.30
2024-05-09T09:20:26.256Z,81.30
2024-05-09T09:23:00.027Z,81.30
2024-05-09T09:25:26.725Z,81.30
2024-05-09T09:27:53.432Z,81.30
2024-05-09T09:30:31.748Z,81.40
2024-05-09T09:33:03.636Z,82.00
2024-05-09T09:35:30.447Z,81.30
2024-05-09T09:37:57.113Z,81.40
2024-05-09T09:40:31.042Z,81.30
2024-05-09T09:42:59.277Z,81.30
2024-05-09T09:45:25.968Z,81.40
2024-05-09T09:47:52.814Z,81.40
2024-05-09T09:50:33.227Z,81.40
2024-05-09T09:53:01.424Z,81.40
2024-05-09T09:55:28.154Z,81.40
2024-05-09T09:57:54.993Z,81.40
2024-05-09T10:00:27.161Z,81.30
2024-05-09T10:02:59.038Z,81.30
2024-05-09T10:05:26.128Z,81.40
2024-05-09T10:07:52.967Z,81.40
2024-05-09T10:10:26.972Z,81.50
2024-05-09T10:12:58.448Z,81.30
2024-05-09T10:15:25.162Z,81.20
2024-05-09T10:17:51.906Z,81.30
2024-05-09T10:20:22.089Z,81.20
2024-05-09T10:22:54.332Z,81.40
2024-05-09T10:25:21.218Z,81.30
2024-05-09T10:27:48.043Z,81.20
2024-05-09T10:30:21.508Z,81.20
2024-05-09T10:32:55.708Z,81.20
2024-05-09T10:35:22.445Z,81.20
2024-05-09T10:37:49.133Z,81.20
2024-05-09T10:42:43.954Z,81.30
2024-05-09T10:45:10.647Z,81.40
2024-05-09T10:47:37.415Z,81.20
2024-05-09T10:50:07.852Z,81.20
2024-05-09T10:52:36.903Z,81.40
2024-05-09T10:55:05.645Z,81.30
2024-05-09T10:57:32.660Z,81.10
2024-05-09T10:59:59.343Z,81.10
2024-05-09T11:02:26.138Z,81.00
2024-05-09T11:04:53.184Z,81.20
2024-05-09T11:07:20.183Z,81.10
2024-05-09T11:09:47.049Z,81.10
2024-05-09T11:12:13.840Z,81.20
2024-05-09T11:14:40.563Z,81.10
2024-05-09T11:17:07.259Z,81.00
2024-05-09T11:19:33.988Z,81.00
2024-05-09T11:22:01.246Z,80.90
2024-05-09T11:24:27.992Z,80.90
2024-05-09T11:26:54.652Z,80.90
2024-05-09T11:29:21.303Z,80.90
2024-05-09T11:31:59.998Z,80.90
2024-05-09T11:34:26.729Z,80.90
2024-05-09T11:36:53.490Z,81.10
2024-05-09T11:39:20.156Z,80.90
2024-05-09T11:41:46.821Z,81.00
2024-05-09T11:44:19.264Z,81.00
2024-05-09T11:46:49.340Z,80.90
2024-05-09T11:49:16.098Z,81.60
2024-05-09T11:51:42.911Z,80.90
2024-05-09T11:54:09.629Z,81.10
2024-05-09T11:56:36.282Z,81.10
2024-05-09T11:59:02.934Z,81.00
2024-05-09T12:01:29.718Z,81.10
2024-05-09T12:03:56.689Z,81.00
2024-05-09T12:06:23.567Z,81.30
2024-05-09T12:08:50.240Z,81.20
2024-05-09T12:11:17.046Z,81.20
2024-05-09T12:13:43.758Z,81.40
2024-05-09T12:16:10.481Z,81.50
2024-05-09T12:18:37.303Z,81.50
2024-05-09T12:21:04.010Z,81.50
2024-05-09T12:23:30.640Z,81.40
2024-05-09T12:25:57.327Z,81.40
2024-05-09T12:28:24.165Z,81.30
2024-05-09T12:30:51.003Z,81.10
2024-05-09T12:33:17.813Z,81.00
2024-05-09T12:35:46.692Z,80.90
2024-05-09T12:38:15.298Z,81.00
2024-05-09T12:40:42.343Z,80.90
2024-05-09T12:43:10.281Z,80.90
2024-05-09T12:45:38.286Z,81.00
2024-05-09T12:48:05.279Z,80.90
2024-05-09T12:50:34.117Z,81.00
2024-05-09T12:53:02.184Z,80.90
2024-05-09T12:55:33.960Z,81.10
2024-05-09T12:58:07.686Z,81.20
2024-05-09T13:00:34.771Z,81.20
2024-05-09T13:03:01.764Z,81.30
2024-05-09T13:05:29.508Z,81.30
2024-05-09T13:07:57.050Z,81.40
2024-05-09T13:10:30.846Z,81.50
2024-05-09T13:12:59.578Z,81.50
2024-05-09T13:15:26.683Z,81.60
2024-05-09T13:17:53.415Z,81.70
2024-05-09T13:20:29.080Z,81.70
2024-05-09T13:22:59.608Z,81.70
2024-05-09T13:25:26.283Z,81.90
2024-05-09T13:27:52.980Z,81.80
2024-05-09T13:30:28.757Z,81.70
2024-05-09T13:33:02.288Z,81.60
2024-05-09T13:35:29.101Z,81.40
2024-05-09T13:37:55.806Z,81.40
2024-05-09T13:40:31.739Z,81.40
2024-05-09T13:43:01.492Z,81.30
2024-05-09T13:45:28.311Z,81.20
2024-05-09T13:47:55.062Z,81.00
2024-05-09T13:50:30.933Z,81.00
2024-05-09T13:53:01.682Z,81.00
2024-05-09T13:55:28.517Z,80.90
2024-05-09T13:57:55.201Z,81.00
2024-05-09T14:00:37.319Z,80.90
2024-05-09T14:03:08.759Z,81.70
2024-05-09T14:05:35.728Z,81.00
2024-05-09T14:08:02.528Z,80.90
2024-05-09T14:10:31.568Z,80.70
2024-05-09T14:12:59.118Z,80.80
2024-05-09T14:15:25.840Z,80.90
2024-05-09T14:17:52.511Z,80.90
2024-05-09T14:20:28.494Z,80.80
2024-05-09T14:22:58.266Z,80.90
2024-05-09T14:25:25.002Z,80.80
2024-05-09T14:27:51.809Z,80.80
2024-05-09T14:30:26.179Z,80.80
2024-05-09T14:33:00.935Z,80.80
2024-05-09T14:35:27.737Z,80.90
2024-05-09T14:37:54.427Z,80.90
2024-05-09T14:40:35.377Z,81.00
2024-05-09T14:43:07.461Z,80.90
2024-05-09T14:45:34.253Z,80.90
2024-05-09T14:48:01.149Z,80.90
2024-05-09T14:50:35.019Z,80.90
2024-05-09T14:53:04.951Z,81.00
2024-05-09T14:55:31.690Z,81.10
2024-05-09T14:57:58.487Z,81.10
2024-05-09T15:00:29.195Z,81.10
2024-05-09T15:03:00.336Z,81.20
2024-05-09T15:05:27.312Z,81.40
2024-05-09T15:07:54.053Z,81.50
2024-05-09T15:10:27.313Z,81.50
2024-05-09T15:13:00.886Z,81.60
2024-05-09T15:15:27.610Z,81.60
2024-05-09T15:17:54.435Z,81.70
2024-05-09T15:20:28.011Z,81.60
2024-05-09T15:23:01.204Z,81.50
2024-05-09T15:25:28.001Z,81.30
2024-05-09T15:27:54.788Z,81.00
2024-05-09T15:30:29.901Z,80.70
2024-05-09T15:32:59.137Z,80.70
2024-05-09T15:35:25.844Z,80.50
2024-05-09T15:37:52.490Z,80.50
2024-05-09T15:40:26.825Z,80.50
2024-05-09T15:43:02.599Z,80.50
2024-05-09T15:45:29.577Z,80.40
2024-05-09T15:47:56.595Z,80.40
2024-05-09T15:50:32.418Z,80.30
2024-05-09T15:53:04.461Z,80.10
2024-05-09T15:55:31.105Z,80.20
2024-05-09T15:57:57.979Z,80.30
2024-05-09T16:00:33.827Z,80.10
2024-05-09T16:03:04.908Z,80.10
2024-05-09T16:05:31.734Z,79.80
2024-05-09T16:07:58.469Z,79.80
2024-05-09T16:10:30.103Z,79.90
2024-05-09T16:12:59.503Z,79.90
2024-05-09T16:15:26.235Z,80.00
2024-05-09T16:17:53.017Z,80.00
2024-05-09T16:20:29.971Z,80.10
2024-05-09T16:23:05.123Z,80.20
2024-05-09T16:25:31.787Z,80.30
2024-05-09T16:27:58.566Z,80.40
2024-05-09T16:30:31.995Z,80.30
2024-05-09T16:33:02.144Z,80.50
2024-05-09T16:35:29.026Z,80.50
2024-05-09T16:37:55.708Z,80.60
2024-05-09T16:40:30.209Z,80.60
2024-05-09T16:43:04.100Z,80.60
2024-05-09T16:45:31.066Z,80.70
2024-05-09T16:47:57.930Z,80.70
2024-05-09T16:50:29.510Z,80.70
2024-05-09T16:52:59.620Z,80.90
2024-05-09T16:55:26.420Z,80.80
2024-05-09T16:57:53.168Z,82.30
2024-05-09T17:00:30.934Z,83.20
2024-05-09T17:03:05.940Z,82.00
2024-05-09T17:05:33.202Z,81.20
2024-05-09T17:08:00.082Z,81.00
2024-05-09T17:10:32.271Z,80.90
2024-05-09T17:13:01.083Z,80.80
2024-05-09T17:15:27.831Z,80.80
2024-05-09T17:17:54.581Z,80.80
2024-05-09T17:20:29.437Z,80.90
2024-05-09T17:23:00.478Z,80.90
2024-05-09T17:25:27.182Z,80.90
2024-05-09T17:27:54.021Z,80.90
2024-05-09T17:30:28.816Z,81.00
2024-05-09T17:33:01.547Z,81.10
2024-05-09T17:35:28.454Z,81.10
2024-05-09T17:37:55.108Z,81.10
2024-05-09T17:40:30.731Z,81.20
2024-05-09T17:43:01.466Z,81.20
2024-05-09T17:45:28.350Z,81.20
2024-05-09T17:47:55.326Z,81.20
2024-05-09T17:50:27.982Z,81.30
2024-05-09T17:53:01.143Z,81.30
2024-05-09T17:55:27.879Z,81.40
2024-05-09T17:57:54.625Z,81.30
2024-05-09T18:00:29.525Z,81.30
2024-05-09T18:03:04.064Z,81.30
2024-05-09T18:05:31.048Z,81.30
2024-05-09T18:08:01.622Z,81.30
2024-05-09T18:10:35.226Z,81.40
2024-05-09T18:13:04.992Z,81.30
2024-05-09T18:15:31.786Z,81.30
2024-05-09T18:17:58.573Z,81.30
2024-05-09T18:20:36.067Z,81.30
2024-05-09T18:23:08.308Z,81.30
2024-05-09T18:25:35.135Z,81.40
2024-05-09T18:28:02.054Z,81.40
2024-05-09T18:30:34.390Z,81.50
2024-05-09T18:33:03.189Z,81.50
2024-05-09T18:35:30.067Z,81.50
2024-05-09T18:37:56.742Z,81.40
2024-05-09T18:42:53.102Z,81.50
2024-05-09T18:45:19.944Z,81.60
2024-05-09T18:47:46.669Z,81.60
2024-05-09T18:50:20.479Z,81.80
2024-05-09T18:52:54.392Z,81.80
2024-05-09T18:55:21.129Z,81.70
2024-05-09T18:57:47.878Z,81.70
2024-05-09T19:00:26.657Z,81.80
2024-05-09T19:03:01.952Z,81.90
2024-05-09T19:05:28.881Z,81.90
2024-05-09T19:07:55.634Z,81.90
2024-05-09T19:10:25.901Z,81.90
2024-05-09T19:12:55.539Z,82.00
2024-05-09T19:15:22.210Z,82.00
2024-05-09T19:17:48.974Z,82.00
2024-05-09T19:20:24.912Z,82.00
2024-05-09T19:22:55.488Z,82.00
2024-05-09T19:25:22.157Z,82.00
2024-05-09T19:27:49.026Z,82.00
2024-05-09T19:30:25.076Z,82.10
2024-05-09T19:33:00.598Z,82.80
2024-05-09T19:35:27.361Z,82.10
2024-05-09T19:37:54.053Z,82.10
2024-05-09T19:40:28.641Z,82.20
2024-05-09T19:43:02.564Z,82.20
2024-05-09T19:45:30.029Z,82.20
2024-05-09T19:47:56.887Z,82.30
2024-05-09T19:50:31.894Z,82.30
2024-05-09T19:53:06.388Z,82.30
2024-05-09T19:55:33.043Z,82.40
2024-05-09T19:58:01.627Z,82.40
2024-05-09T20:00:35.678Z,82.40
2024-05-09T20:03:04.037Z,83.10
2024-05-09T20:05:31.329Z,82.30
2024-05-09T20:07:58.192Z,82.40
2024-05-09T20:10:31.459Z,82.50
2024-05-09T20:13:00.487Z,82.40
2024-05-09T20:15:27.333Z,82.50
2024-05-09T20:17:54.475Z,82.50
2024-05-09T20:20:32.099Z,82.50
2024-05-09T20:23:03.839Z,82.60
2024-05-09T20:25:30.488Z,82.60
2024-05-09T20:27:57.194Z,82.60
2024-05-09T20:30:31.239Z,82.70
2024-05-09T20:33:00.214Z,82.60
2024-05-09T20:35:27.158Z,82.70
2024-05-09T20:37:53.838Z,82.60
2024-05-09T20:40:28.403Z,82.70
2024-05-09T20:42:58.959Z,82.70
2024-05-09T20:45:25.859Z,82.70
2024-05-09T20:47:52.684Z,82.70
2024-05-09T20:50:28.171Z,82.70
2024-05-09T20:53:02.713Z,82.80
2024-05-09T20:55:29.453Z,82.70
2024-05-09T20:57:56.198Z,82.60
2024-05-09T21:00:30.012Z,82.60
2024-05-09T21:03:04.590Z,82.60
2024-05-09T21:05:31.586Z,82.60
2024-05-09T21:07:58.362Z,82.70
2024-05-09T21:10:27.042Z,82.60
2024-05-09T21:12:54.145Z,82.60
2024-05-09T21:15:20.832Z,82.60
2024-05-09T21:17:47.583Z,82.60
2024-05-09T21:20:17.296Z,82.60
2024-05-09T21:22:47.312Z,82.70
2024-05-09T21:25:19.889Z,82.60
2024-05-09T21:27:46.628Z,82.60
2024-05-09T21:30:18.912Z,82.50
2024-05-09T21:32:54.725Z,82.60
2024-05-09T21:35:21.443Z,82.50
2024-05-09T21:37:48.102Z,82.60
2024-05-09T21:40:24.251Z,82.60
2024-05-09T21:42:57.992Z,82.50
2024-05-09T21:45:24.684Z,82.60
2024-05-09T21:47:51.471Z,82.60
2024-05-09T21:50:22.951Z,82.60
2024-05-09T21:52:55.006Z,82.60
2024-05-09T21:55:21.721Z,82.70
2024-05-09T21:57:48.502Z,82.50
2024-05-09T22:00:28.067Z,82.60
2024-05-09T22:03:01.802Z,82.50
2024-05-09T22:05:28.688Z,82.60
2024-05-09T22:07:55.416Z,82.50
2024-05-09T22:10:26.507Z,82.40
2024-05-09T22:12:59.042Z,82.50
2024-05-09T22:15:25.762Z,82.50
2024-05-09T22:17:52.589Z,82.50
2024-05-09T22:20:28.572Z,82.40
2024-05-09T22:23:01.231Z,82.40
2024-05-09T22:25:30.488Z,82.40
2024-05-09T22:27:57.762Z,82.40
2024-05-09T22:30:33.139Z,82.40
2024-05-09T22:33:03.746Z,82.40
2024-05-09T22:35:30.544Z,82.50
2024-05-09T22:37:57.219Z,82.20
2024-05-09T22:40:32.771Z,82.20
2024-05-09T22:43:08.673Z,82.20
2024-05-09T22:45:35.469Z,82.30
2024-05-09T22:48:02.394Z,82.30
2024-05-09T22:50:33.197Z,82.30
2024-05-09T22:53:00.424Z,82.20
2024-05-09T22:55:27.081Z,82.30
2024-05-09T22:57:53.814Z,82.10
2024-05-09T23:00:29.190Z,82.10
2024-05-09T23:03:02.267Z,82.10
2024-05-09T23:05:29.454Z,82.20
2024-05-09T23:07:56.383Z,82.00
2024-05-09T23:10:31.031Z,82.20
2024-05-09T23:13:02.276Z,82.10
2024-05-09T23:15:29.079Z,82.20
2024-05-09T23:17:56.065Z,82.10
2024-05-09T23:20:33.232Z,82.00
2024-05-09T23:23:04.644Z,82.10
2024-05-09T23:25:31.316Z,82.20
2024-05-09T23:27:58.063Z,82.00
2024-05-09T23:30:33.762Z,81.90
2024-05-09T23:33:04.815Z,82.10
2024-05-09T23:35:31.586Z,82.10
2024-05-09T23:37:58.248Z,82.10
2024-05-09T23:40:36.372Z,82.10
2024-05-09T23:43:06.330Z,82.10
2024-05-09T23:45:33.308Z,82.00
2024-05-09T23:48:00.278Z,82.20
2024-05-09T23:50:34.246Z,82.20
2024-05-09T23:53:04.086Z,83.10
2024-05-09T23:55:30.795Z,82.20
2024-05-09T23:57:57.490Z,82.30
